Dublin, Ireland
Current Conditions -  °F | °C
As of 6:00 AM on Thursday 23 Oct 2014 (Local Time) from EIDW Reporting Station
Broken Clouds Broken Clouds  
Wind Chill: 13°   Ceiling: 2300
Heat Index: 13°   Visibility: 6mi
Dew Point: 11°   Wind: 17mph
Humidity: 88%   Direction: 230°SW
Pressure: 29.91"   Gusts: NA
Location:  53.33°N, 6.25°W
Report Text: EIDW 230600Z 23015KT 9999 BKN023 BKN100 13/11 Q1013 NOSIG
Loading
Personal Weather Stations






























Interactive Weather Map New forecast layout! Learn more

10-Day Weather Forecast

Advertisements
Track Severe Weather on mobile